createdAt,value
2019-02-28T00:02:14.766Z,18.43
2019-02-28T00:04:46.847Z,18.00
2019-02-28T00:07:23.210Z,17.13
2019-02-28T00:10:13.488Z,16.97
2019-02-28T00:15:44.074Z,16.93
2019-02-28T00:18:18.902Z,16.57
2019-02-28T00:24:14.945Z,15.73
2019-02-28T00:26:48.784Z,17.47
2019-02-28T00:29:26.290Z,16.50
2019-02-28T00:32:04.874Z,15.93
2019-02-28T00:34:39.213Z,16.60
2019-02-28T00:37:17.022Z,16.13
2019-02-28T00:39:50.975Z,16.23
2019-02-28T00:42:27.214Z,17.00
2019-02-28T00:45:02.180Z,17.23
2019-02-28T00:47:38.063Z,17.40
2019-02-28T00:50:10.996Z,18.53
2019-02-28T00:52:41.676Z,17.80
2019-02-28T00:55:15.247Z,18.23
2019-02-28T00:57:46.282Z,18.13
2019-02-28T01:00:37.878Z,18.23
2019-02-28T01:03:12.999Z,18.60
2019-02-28T01:05:46.984Z,17.53
2019-02-28T01:08:39.146Z,20.43
2019-02-28T01:11:13.929Z,18.37
2019-02-28T01:13:47.312Z,18.67
2019-02-28T01:16:28.138Z,17.83
2019-02-28T01:19:03.341Z,18.53
2019-02-28T01:21:57.298Z,18.53
2019-02-28T01:24:36.022Z,18.50
2019-02-28T01:27:17.289Z,19.37
2019-02-28T01:29:54.803Z,20.00
2019-02-28T01:32:35.390Z,20.23
2019-02-28T01:35:21.506Z,19.70
2019-02-28T01:38:02.502Z,19.03
2019-02-28T01:40:37.701Z,19.10
2019-02-28T01:43:11.632Z,19.90
2019-02-28T01:45:44.432Z,19.67
2019-02-28T01:48:26.798Z,20.77
2019-02-28T01:51:12.771Z,20.50
2019-02-28T01:53:55.310Z,21.77
2019-02-28T01:56:30.631Z,20.37
2019-02-28T01:59:11.674Z,20.40
2019-02-28T02:02:06.699Z,21.67
2019-02-28T02:04:43.151Z,22.43
2019-02-28T02:07:26.755Z,23.00
2019-02-28T02:10:09.646Z,21.53
2019-02-28T02:12:45.304Z,22.97
2019-02-28T02:15:24.940Z,22.80
2019-02-28T02:18:02.001Z,23.17
2019-02-28T02:20:48.137Z,24.03
2019-02-28T02:23:23.258Z,24.10
2019-02-28T02:26:03.276Z,24.50
2019-02-28T02:28:40.209Z,24.27
2019-02-28T02:31:13.037Z,23.60
2019-02-28T02:33:51.176Z,22.20
2019-02-28T02:36:21.482Z,23.67
2019-02-28T02:38:56.727Z,24.70
2019-02-28T02:41:33.407Z,24.10
2019-02-28T02:44:12.740Z,24.03
2019-02-28T02:46:47.954Z,25.93
2019-02-28T02:49:26.240Z,25.93
2019-02-28T02:52:15.686Z,26.53
2019-02-28T02:54:52.087Z,25.73
2019-02-28T02:57:32.217Z,27.07
2019-02-28T03:00:13.260Z,27.30
2019-02-28T03:02:47.128Z,28.33
2019-02-28T03:05:22.119Z,26.63
2019-02-28T03:08:07.042Z,28.40
2019-02-28T03:10:47.083Z,28.27
2019-02-28T03:13:21.231Z,27.60
2019-02-28T03:16:00.392Z,27.43
2019-02-28T03:18:37.833Z,28.40
2019-02-28T03:21:15.128Z,29.03
2019-02-28T03:23:44.544Z,29.40
2019-02-28T03:26:41.500Z,28.60
2019-02-28T03:29:12.418Z,28.60
2019-02-28T03:31:56.634Z,29.53
2019-02-28T03:34:21.778Z,30.57
2019-02-28T03:36:56.984Z,30.73
2019-02-28T03:39:35.360Z,32.07
2019-02-28T03:45:09.813Z,31.43
2019-02-28T03:50:55.381Z,31.87
2019-02-28T03:53:27.170Z,33.20
2019-02-28T03:56:05.582Z,33.10
2019-02-28T03:58:44.561Z,33.33
2019-02-28T04:01:17.652Z,36.63
2019-02-28T04:03:58.478Z,36.47
2019-02-28T04:06:30.232Z,33.90
2019-02-28T04:09:07.238Z,37.70
2019-02-28T04:11:41.577Z,35.23
2019-02-28T04:16:59.008Z,36.87
2019-02-28T04:22:27.937Z,37.67
2019-02-28T04:25:06.286Z,36.90
2019-02-28T04:30:43.763Z,35.47
2019-02-28T04:33:29.710Z,37.13
2019-02-28T04:36:03.231Z,36.03
2019-02-28T04:38:39.836Z,35.43
2019-02-28T04:41:10.036Z,35.23
2019-02-28T04:43:46.722Z,35.80
2019-02-28T04:46:28.297Z,35.60
2019-02-28T04:49:11.526Z,34.63
2019-02-28T04:51:44.811Z,34.83
2019-02-28T04:54:27.832Z,34.50
2019-02-28T04:57:09.849Z,33.87
2019-02-28T04:59:54.926Z,36.43
2019-02-28T05:02:26.240Z,34.90
2019-02-28T05:07:53.323Z,36.83
2019-02-28T05:10:32.681Z,37.83
2019-02-28T05:13:07.844Z,37.80
2019-02-28T05:15:41.060Z,35.47
2019-02-28T05:18:17.426Z,38.17
2019-02-28T05:21:00.782Z,35.40
2019-02-28T05:23:39.158Z,34.97
2019-02-28T05:32:21.589Z,38.20
2019-02-28T05:34:58.608Z,37.80
2019-02-28T05:37:30.968Z,41.43
2019-02-28T05:40:06.949Z,40.00
2019-02-28T05:42:36.912Z,39.80
2019-02-28T05:45:11.334Z,39.73
2019-02-28T05:47:47.089Z,40.60
2019-02-28T05:50:25.002Z,43.70
2019-02-28T05:52:58.769Z,41.40
2019-02-28T05:55:33.904Z,41.97
2019-02-28T05:58:17.506Z,42.60
2019-02-28T06:00:44.722Z,39.93
2019-02-28T06:03:17.464Z,42.60
2019-02-28T06:05:49.999Z,42.30
2019-02-28T06:08:26.105Z,43.20
2019-02-28T06:11:00.624Z,43.17
2019-02-28T06:13:31.523Z,40.67
2019-02-28T06:16:04.049Z,44.13
2019-02-28T06:18:37.776Z,44.30
2019-02-28T06:21:11.760Z,46.03
2019-02-28T06:23:42.867Z,46.20
2019-02-28T06:29:29.325Z,44.80
2019-02-28T06:32:02.174Z,47.70
2019-02-28T06:34:33.442Z,47.50
2019-02-28T06:37:10.103Z,49.23
2019-02-28T06:39:41.179Z,51.13
2019-02-28T06:42:11.762Z,47.23
2019-02-28T06:44:46.023Z,48.00
2019-02-28T06:50:12.983Z,46.43
2019-02-28T06:52:41.733Z,51.03
2019-02-28T06:55:13.443Z,49.63
2019-02-28T06:57:47.868Z,49.53
2019-02-28T07:03:12.957Z,47.33
2019-02-28T07:05:49.579Z,46.63
2019-02-28T07:08:24.726Z,46.83
2019-02-28T07:10:56.205Z,48.57
2019-02-28T07:13:27.694Z,45.77
2019-02-28T07:15:59.927Z,41.17
2019-02-28T07:18:31.503Z,49.17
2019-02-28T07:21:07.861Z,48.37
2019-02-28T07:23:37.257Z,43.97
2019-02-28T07:26:10.053Z,44.33
2019-02-28T07:28:39.957Z,35.80
2019-02-28T07:31:12.288Z,46.60
2019-02-28T07:33:44.535Z,40.77
2019-02-28T07:36:23.793Z,41.67
2019-02-28T07:38:57.781Z,33.50
2019-02-28T07:41:28.475Z,38.30
2019-02-28T07:43:59.401Z,42.13
2019-02-28T07:46:29.657Z,38.70
2019-02-28T07:49:01.672Z,42.07
2019-02-28T07:51:32.121Z,41.90
2019-02-28T07:54:02.146Z,39.00
2019-02-28T07:56:32.471Z,38.40
2019-02-28T07:59:05.320Z,37.37
2019-02-28T08:01:35.305Z,32.33
2019-02-28T08:04:05.597Z,34.63
2019-02-28T08:06:36.311Z,39.53
2019-02-28T08:09:09.923Z,35.03
2019-02-28T08:11:42.291Z,39.53
2019-02-28T08:14:13.492Z,34.73
2019-02-28T08:16:43.729Z,33.53
2019-02-28T08:19:14.167Z,33.67
2019-02-28T08:21:47.608Z,29.87
2019-02-28T08:24:18.538Z,29.47
2019-02-28T08:26:50.727Z,28.93
2019-02-28T08:29:19.839Z,26.97
2019-02-28T08:31:50.992Z,31.00
2019-02-28T08:34:23.849Z,29.07
2019-02-28T08:36:55.674Z,27.87
2019-02-28T08:39:26.824Z,30.73
2019-02-28T08:42:02.981Z,32.47
2019-02-28T08:44:31.895Z,32.67
2019-02-28T08:47:02.613Z,33.20
2019-02-28T08:49:32.436Z,28.23
2019-02-28T08:52:02.589Z,27.60
2019-02-28T08:54:34.737Z,25.07
2019-02-28T08:57:06.452Z,28.30
2019-02-28T08:59:37.111Z,28.70
2019-02-28T09:02:09.548Z,25.47
2019-02-28T09:04:41.433Z,24.20
2019-02-28T09:07:20.066Z,25.20
2019-02-28T09:09:51.068Z,27.40
2019-02-28T09:12:33.362Z,24.97
2019-02-28T09:15:03.417Z,26.17
2019-02-28T09:17:33.400Z,28.47
2019-02-28T09:20:07.545Z,27.70
2019-02-28T09:22:38.940Z,28.90
2019-02-28T09:25:22.135Z,24.50
2019-02-28T09:27:56.922Z,24.43
2019-02-28T09:30:38.897Z,21.20
2019-02-28T09:33:09.291Z,23.33
2019-02-28T09:35:45.014Z,23.20
2019-02-28T09:38:14.792Z,25.77
2019-02-28T09:40:45.746Z,22.27
2019-02-28T09:43:18.830Z,22.83
2019-02-28T09:45:52.906Z,21.40
2019-02-28T09:48:26.321Z,24.77
2019-02-28T09:50:59.105Z,23.57
2019-02-28T09:53:31.317Z,22.53
2019-02-28T09:56:08.888Z,21.50
2019-02-28T09:58:35.952Z,17.63
2019-02-28T10:01:16.386Z,18.20
2019-02-28T10:03:46.268Z,21.27
2019-02-28T10:06:16.584Z,17.80
2019-02-28T10:08:50.612Z,20.83
2019-02-28T10:11:24.291Z,23.37
2019-02-28T10:13:58.234Z,24.63
2019-02-28T10:16:30.215Z,26.10
2019-02-28T10:19:01.703Z,27.77
2019-02-28T10:21:36.485Z,22.30
2019-02-28T10:24:08.654Z,22.07
2019-02-28T10:26:38.635Z,22.60
2019-02-28T10:29:13.749Z,21.90
2019-02-28T10:31:44.208Z,23.30
2019-02-28T10:34:14.139Z,20.53
2019-02-28T10:36:49.696Z,18.43
2019-02-28T10:39:27.382Z,18.37
2019-02-28T10:42:01.581Z,18.00
2019-02-28T10:44:32.435Z,17.67
2019-02-28T10:47:05.051Z,18.60
2019-02-28T10:49:35.613Z,16.10
2019-02-28T10:52:08.333Z,14.97
2019-02-28T10:54:38.241Z,13.43
2019-02-28T10:57:09.485Z,10.70
2019-02-28T10:59:41.754Z,9.03
2019-02-28T11:02:13.986Z,10.93
2019-02-28T11:04:48.249Z,12.47
2019-02-28T11:07:18.211Z,10.53
2019-02-28T11:09:48.448Z,8.73
2019-02-28T11:12:23.721Z,8.27
2019-02-28T11:14:55.803Z,6.67
2019-02-28T11:17:30.393Z,7.73
2019-02-28T11:20:03.457Z,8.27
2019-02-28T11:22:46.853Z,9.00
2019-02-28T11:25:22.378Z,7.70
2019-02-28T11:27:57.822Z,7.27
2019-02-28T11:30:31.861Z,7.20
2019-02-28T11:33:04.771Z,8.87
2019-02-28T11:35:35.201Z,7.47
2019-02-28T11:38:07.575Z,7.17
2019-02-28T11:40:43.627Z,6.17
2019-02-28T11:43:15.031Z,5.77
2019-02-28T11:45:49.115Z,5.70
2019-02-28T11:48:29.943Z,5.03
2019-02-28T11:51:01.361Z,7.47
2019-02-28T11:53:32.519Z,5.87
2019-02-28T11:56:06.095Z,3.90
2019-02-28T11:58:42.008Z,4.13
2019-02-28T12:01:16.819Z,5.07
2019-02-28T12:03:54.830Z,4.33
2019-02-28T12:06:28.948Z,5.62
2019-02-28T12:09:04.812Z,4.70
2019-02-28T12:11:40.852Z,12.07
2019-02-28T12:14:13.320Z,5.28
2019-02-28T12:16:45.453Z,4.97
2019-02-28T12:19:36.047Z,4.75
2019-02-28T12:22:12.815Z,3.77
2019-02-28T12:24:48.371Z,4.40
2019-02-28T12:27:21.015Z,4.20
2019-02-28T12:29:53.207Z,3.50
2019-02-28T12:32:26.017Z,3.45
2019-02-28T12:35:03.197Z,3.15
2019-02-28T12:37:37.239Z,2.60
2019-02-28T12:40:13.425Z,3.20
2019-02-28T12:42:50.838Z,3.30
2019-02-28T12:45:35.234Z,3.52
2019-02-28T12:48:08.864Z,3.33
2019-02-28T12:50:46.132Z,2.83
2019-02-28T12:53:25.321Z,3.67
2019-02-28T12:56:03.076Z,2.50
2019-02-28T12:58:39.175Z,2.90
2019-02-28T13:01:09.786Z,2.40
2019-02-28T13:03:47.274Z,2.10
2019-02-28T13:09:16.937Z,2.45
2019-02-28T13:11:57.076Z,3.50
2019-02-28T13:14:40.710Z,2.72
2019-02-28T13:20:32.249Z,1.80
2019-02-28T13:23:12.282Z,1.80
2019-02-28T13:26:00.001Z,1.90
2019-02-28T13:28:46.934Z,1.90
2019-02-28T13:31:27.149Z,1.77
2019-02-28T15:14:15.720Z,1.80
2019-02-28T16:09:54.042Z,1.90
2019-02-28T16:12:38.398Z,2.60
2019-02-28T16:18:12.822Z,2.77
2019-02-28T16:20:56.289Z,1.40
2019-02-28T16:23:32.856Z,2.90
2019-02-28T16:26:18.245Z,2.33
2019-02-28T16:31:47.784Z,2.33
2019-02-28T16:37:28.931Z,1.67
2019-02-28T16:48:53.990Z,2.83
2019-02-28T16:51:30.186Z,3.40
2019-02-28T16:54:01.080Z,3.80
2019-02-28T16:56:38.745Z,3.47
2019-02-28T16:59:16.508Z,4.57
2019-02-28T17:02:08.419Z,5.63
2019-02-28T17:04:51.520Z,6.53
2019-02-28T17:07:24.750Z,7.57
2019-02-28T17:12:53.323Z,8.80
2019-02-28T17:15:30.743Z,10.77
2019-02-28T17:18:13.020Z,10.40
2019-02-28T17:20:50.823Z,10.60
2019-02-28T17:23:42.547Z,11.97
2019-02-28T17:26:14.235Z,12.20
2019-02-28T17:31:50.509Z,12.77
2019-02-28T17:41:44.163Z,12.90
2019-02-28T17:44:37.473Z,13.00
2019-02-28T17:54:05.916Z,10.60
2019-02-28T17:57:17.651Z,10.17
2019-02-28T18:00:30.895Z,11.97
2019-02-28T18:03:26.571Z,12.03
2019-02-28T18:06:35.122Z,10.87
2019-02-28T18:09:17.531Z,10.73
2019-02-28T18:12:40.600Z,12.13
2019-02-28T18:18:45.704Z,9.77
2019-02-28T18:24:42.890Z,10.63
2019-02-28T18:27:37.630Z,11.67
2019-02-28T18:30:36.540Z,13.60
2019-02-28T18:33:19.442Z,12.73
2019-02-28T18:38:55.341Z,13.93
2019-02-28T18:44:31.112Z,14.00
2019-02-28T18:47:13.693Z,14.10
2019-02-28T18:49:57.046Z,12.57
2019-02-28T20:53:58.976Z,8.87
2019-02-28T21:14:17.299Z,11.93
2019-02-28T21:48:55.530Z,8.77
2019-02-28T22:34:46.164Z,10.93
2019-02-28T22:37:31.937Z,8.87
2019-02-28T22:40:15.662Z,9.20
2019-02-28T22:43:07.865Z,7.90
2019-02-28T22:45:42.304Z,6.47
2019-02-28T23:16:10.182Z,4.57
2019-02-28T23:19:10.387Z,5.47
2019-02-28T23:47:10.153Z,8.33
